sensor_id;sensor_type;location;lat;lon;timestamp;P1;durP1;ratioP1;P2;durP2;ratioP2
39792;SDS011;26080;42.264;24.536;2023-05-15T00:02:21;2.58;;;1.75;;
39792;SDS011;26080;42.264;24.536;2023-05-15T00:04:47;1.77;;;1.60;;
39792;SDS011;26080;42.264;24.536;2023-05-15T00:07:13;3.47;;;2.33;;
39792;SDS011;26080;42.264;24.536;2023-05-15T00:09:38;3.05;;;1.90;;
39792;SDS011;26080;42.264;24.536;2023-05-15T00:12:03;2.22;;;1.48;;
39792;SDS011;26080;42.264;24.536;2023-05-15T00:14:29;2.90;;;1.95;;
39792;SDS011;26080;42.264;24.536;2023-05-15T00:16:55;2.75;;;2.00;;
39792;SDS011;26080;42.264;24.536;2023-05-15T00:19:20;4.63;;;2.60;;
39792;SDS011;26080;42.264;24.536;2023-05-15T00:21:46;1.58;;;1.13;;
39792;SDS011;26080;42.264;24.536;2023-05-15T00:24:11;2.33;;;1.48;;
39792;SDS011;26080;42.264;24.536;2023-05-15T00:26:37;2.17;;;1.95;;
39792;SDS011;26080;42.264;24.536;2023-05-15T00:29:02;4.47;;;2.40;;
39792;SDS011;26080;42.264;24.536;2023-05-15T00:31:27;4.28;;;2.05;;
39792;SDS011;26080;42.264;24.536;2023-05-15T00:33:53;3.25;;;2.00;;
39792;SDS011;26080;42.264;24.536;2023-05-15T00:36:18;2.00;;;1.80;;
39792;SDS011;26080;42.264;24.536;2023-05-15T00:38:45;3.45;;;2.60;;
39792;SDS011;26080;42.264;24.536;2023-05-15T00:41:11;3.58;;;2.03;;
39792;SDS011;26080;42.264;24.536;2023-05-15T00:43:37;2.47;;;2.00;;
39792;SDS011;26080;42.264;24.536;2023-05-15T00:46:03;4.20;;;1.88;;
39792;SDS011;26080;42.264;24.536;2023-05-15T00:48:31;4.85;;;1.58;;
39792;SDS011;26080;42.264;24.536;2023-05-15T00:50:57;3.10;;;2.17;;
39792;SDS011;26080;42.264;24.536;2023-05-15T00:53:23;3.33;;;2.38;;
39792;SDS011;26080;42.264;24.536;2023-05-15T00:55:51;4.28;;;2.35;;
39792;SDS011;26080;42.264;24.536;2023-05-15T00:58:20;4.20;;;2.20;;
39792;SDS011;26080;42.264;24.536;2023-05-15T01:00:46;3.20;;;1.95;;
39792;SDS011;26080;42.264;24.536;2023-05-15T01:03:13;2.90;;;1.80;;
39792;SDS011;26080;42.264;24.536;2023-05-15T01:05:39;4.55;;;2.35;;
39792;SDS011;26080;42.264;24.536;2023-05-15T01:10:33;3.50;;;1.92;;
39792;SDS011;26080;42.264;24.536;2023-05-15T01:12:59;3.38;;;2.40;;
39792;SDS011;26080;42.264;24.536;2023-05-15T01:15:26;3.35;;;1.90;;
39792;SDS011;26080;42.264;24.536;2023-05-15T01:17:52;2.85;;;2.38;;
39792;SDS011;26080;42.264;24.536;2023-05-15T01:20:17;3.22;;;1.83;;
39792;SDS011;26080;42.264;24.536;2023-05-15T01:22:53;2.70;;;2.10;;
39792;SDS011;26080;42.264;24.536;2023-05-15T01:25:36;5.57;;;2.35;;
39792;SDS011;26080;42.264;24.536;2023-05-15T01:28:11;2.63;;;1.85;;
39792;SDS011;26080;42.264;24.536;2023-05-15T01:30:46;5.78;;;2.92;;
39792;SDS011;26080;42.264;24.536;2023-05-15T01:41:40;7.20;;;2.88;;
39792;SDS011;26080;42.264;24.536;2023-05-15T01:44:17;3.85;;;2.85;;
39792;SDS011;26080;42.264;24.536;2023-05-15T01:46:50;5.15;;;2.75;;
39792;SDS011;26080;42.264;24.536;2023-05-15T01:49:19;4.60;;;2.72;;
39792;SDS011;26080;42.264;24.536;2023-05-15T01:51:52;3.67;;;2.72;;
39792;SDS011;26080;42.264;24.536;2023-05-15T01:54:23;5.88;;;2.85;;
39792;SDS011;26080;42.264;24.536;2023-05-15T01:56:50;9.65;;;3.83;;
39792;SDS011;26080;42.264;24.536;2023-05-15T01:59:16;6.65;;;3.08;;
39792;SDS011;26080;42.264;24.536;2023-05-15T02:01:45;3.67;;;2.05;;
39792;SDS011;26080;42.264;24.536;2023-05-15T02:04:11;3.50;;;1.98;;
39792;SDS011;26080;42.264;24.536;2023-05-15T02:06:38;8.18;;;3.55;;
39792;SDS011;26080;42.264;24.536;2023-05-15T02:09:05;4.22;;;2.63;;
39792;SDS011;26080;42.264;24.536;2023-05-15T02:11:31;6.10;;;2.90;;
39792;SDS011;26080;42.264;24.536;2023-05-15T02:13:57;4.00;;;2.63;;
39792;SDS011;26080;42.264;24.536;2023-05-15T02:16:25;3.03;;;2.25;;
39792;SDS011;26080;42.264;24.536;2023-05-15T02:18:50;3.70;;;2.38;;
39792;SDS011;26080;42.264;24.536;2023-05-15T02:21:16;2.72;;;1.73;;
39792;SDS011;26080;42.264;24.536;2023-05-15T02:23:42;2.53;;;2.33;;
39792;SDS011;26080;42.264;24.536;2023-05-15T02:29:11;3.67;;;2.42;;
39792;SDS011;26080;42.264;24.536;2023-05-15T02:34:27;5.93;;;3.45;;
39792;SDS011;26080;42.264;24.536;2023-05-15T02:37:13;4.72;;;2.60;;
39792;SDS011;26080;42.264;24.536;2023-05-15T02:39:44;3.10;;;2.15;;
39792;SDS011;26080;42.264;24.536;2023-05-15T02:42:11;3.22;;;2.25;;
39792;SDS011;26080;42.264;24.536;2023-05-15T02:44:39;2.78;;;2.03;;
39792;SDS011;26080;42.264;24.536;2023-05-15T02:47:04;5.45;;;2.45;;
39792;SDS011;26080;42.264;24.536;2023-05-15T02:49:31;3.20;;;1.83;;
39792;SDS011;26080;42.264;24.536;2023-05-15T02:51:57;9.63;;;2.75;;
39792;SDS011;26080;42.264;24.536;2023-05-15T02:54:22;3.65;;;2.00;;
39792;SDS011;26080;42.264;24.536;2023-05-15T02:56:48;3.13;;;2.42;;
39792;SDS011;26080;42.264;24.536;2023-05-15T02:59:13;3.58;;;2.60;;
39792;SDS011;26080;42.264;24.536;2023-05-15T03:01:43;4.65;;;2.85;;
39792;SDS011;26080;42.264;24.536;2023-05-15T03:04:09;4.07;;;2.03;;
39792;SDS011;26080;42.264;24.536;2023-05-15T03:06:34;4.28;;;2.42;;
39792;SDS011;26080;42.264;24.536;2023-05-15T03:09:00;4.50;;;2.30;;
39792;SDS011;26080;42.264;24.536;2023-05-15T03:11:25;4.53;;;2.67;;
39792;SDS011;26080;42.264;24.536;2023-05-15T03:13:51;5.30;;;2.55;;
39792;SDS011;26080;42.264;24.536;2023-05-15T03:16:16;3.63;;;2.03;;
39792;SDS011;26080;42.264;24.536;2023-05-15T03:18:41;4.93;;;2.60;;
39792;SDS011;26080;42.264;24.536;2023-05-15T03:21:07;3.30;;;2.00;;
39792;SDS011;26080;42.264;24.536;2023-05-15T03:23:32;3.22;;;2.28;;
39792;SDS011;26080;42.264;24.536;2023-05-15T03:25:57;6.90;;;2.90;;
39792;SDS011;26080;42.264;24.536;2023-05-15T03:28:23;3.60;;;2.58;;
39792;SDS011;26080;42.264;24.536;2023-05-15T03:30:48;4.38;;;2.40;;
39792;SDS011;26080;42.264;24.536;2023-05-15T03:33:14;6.35;;;3.22;;
39792;SDS011;26080;42.264;24.536;2023-05-15T03:35:39;3.22;;;2.15;;
39792;SDS011;26080;42.264;24.536;2023-05-15T03:38:05;3.80;;;2.08;;
39792;SDS011;26080;42.264;24.536;2023-05-15T03:40:31;4.55;;;2.40;;
39792;SDS011;26080;42.264;24.536;2023-05-15T03:42:56;2.83;;;1.77;;
39792;SDS011;26080;42.264;24.536;2023-05-15T03:45:22;3.10;;;2.35;;
39792;SDS011;26080;42.264;24.536;2023-05-15T03:47:47;3.00;;;2.10;;
39792;SDS011;26080;42.264;24.536;2023-05-15T03:50:14;3.22;;;1.95;;
39792;SDS011;26080;42.264;24.536;2023-05-15T03:52:40;2.60;;;2.00;;
39792;SDS011;26080;42.264;24.536;2023-05-15T03:55:05;3.22;;;1.80;;
39792;SDS011;26080;42.264;24.536;2023-05-15T03:57:31;5.07;;;2.67;;
39792;SDS011;26080;42.264;24.536;2023-05-15T04:00:00;4.53;;;3.25;;
39792;SDS011;26080;42.264;24.536;2023-05-15T04:02:28;6.80;;;3.65;;
39792;SDS011;26080;42.264;24.536;2023-05-15T04:04:53;5.68;;;2.45;;
39792;SDS011;26080;42.264;24.536;2023-05-15T04:07:18;4.60;;;2.30;;
39792;SDS011;26080;42.264;24.536;2023-05-15T04:09:44;3.33;;;2.63;;
39792;SDS011;26080;42.264;24.536;2023-05-15T04:12:09;6.57;;;2.50;;
39792;SDS011;26080;42.264;24.536;2023-05-15T04:14:35;3.22;;;2.55;;
39792;SDS011;26080;42.264;24.536;2023-05-15T04:17:00;3.30;;;2.10;;
39792;SDS011;26080;42.264;24.536;2023-05-15T04:19:25;2.13;;;1.80;;
39792;SDS011;26080;42.264;24.536;2023-05-15T04:21:51;3.35;;;2.63;;
39792;SDS011;26080;42.264;24.536;2023-05-15T04:24:16;2.42;;;1.65;;
39792;SDS011;26080;42.264;24.536;2023-05-15T04:26:42;3.13;;;2.38;;
39792;SDS011;26080;42.264;24.536;2023-05-15T04:29:07;1.38;;;1.25;;
39792;SDS011;26080;42.264;24.536;2023-05-15T04:31:33;4.35;;;2.65;;
39792;SDS011;26080;42.264;24.536;2023-05-15T04:33:59;2.38;;;2.13;;
39792;SDS011;26080;42.264;24.536;2023-05-15T04:36:27;5.57;;;3.30;;
39792;SDS011;26080;42.264;24.536;2023-05-15T04:38:52;3.70;;;2.25;;
39792;SDS011;26080;42.264;24.536;2023-05-15T04:41:18;4.43;;;2.42;;
39792;SDS011;26080;42.264;24.536;2023-05-15T04:43:43;4.75;;;2.55;;
39792;SDS011;26080;42.264;24.536;2023-05-15T04:46:09;5.78;;;1.95;;
39792;SDS011;26080;42.264;24.536;2023-05-15T04:48:34;3.65;;;1.92;;
39792;SDS011;26080;42.264;24.536;2023-05-15T04:51:00;4.20;;;2.40;;
39792;SDS011;26080;42.264;24.536;2023-05-15T04:53:25;1.88;;;1.50;;
39792;SDS011;26080;42.264;24.536;2023-05-15T04:55:50;4.70;;;2.40;;
39792;SDS011;26080;42.264;24.536;2023-05-15T04:58:16;5.20;;;2.72;;
39792;SDS011;26080;42.264;24.536;2023-05-15T05:00:42;6.30;;;2.92;;
39792;SDS011;26080;42.264;24.536;2023-05-15T05:03:07;3.00;;;1.98;;
39792;SDS011;26080;42.264;24.536;2023-05-15T05:05:32;3.90;;;2.72;;
39792;SDS011;26080;42.264;24.536;2023-05-15T05:07:58;1.98;;;1.33;;
39792;SDS011;26080;42.264;24.536;2023-05-15T05:10:23;2.42;;;2.22;;
39792;SDS011;26080;42.264;24.536;2023-05-15T05:12:48;11.63;;;2.45;;
39792;SDS011;26080;42.264;24.536;2023-05-15T05:15:14;8.85;;;2.65;;
39792;SDS011;26080;42.264;24.536;2023-05-15T05:17:39;3.13;;;2.80;;
39792;SDS011;26080;42.264;24.536;2023-05-15T05:20:05;2.97;;;2.05;;
39792;SDS011;26080;42.264;24.536;2023-05-15T05:22:34;6.63;;;3.33;;
39792;SDS011;26080;42.264;24.536;2023-05-15T05:25:00;4.35;;;3.30;;
39792;SDS011;26080;42.264;24.536;2023-05-15T05:27:25;2.78;;;2.20;;
39792;SDS011;26080;42.264;24.536;2023-05-15T05:29:51;2.72;;;1.73;;
39792;SDS011;26080;42.264;24.536;2023-05-15T05:32:18;7.07;;;2.88;;
39792;SDS011;26080;42.264;24.536;2023-05-15T05:34:43;6.05;;;3.65;;
39792;SDS011;26080;42.264;24.536;2023-05-15T05:37:09;19.58;;;8.95;;
39792;SDS011;26080;42.264;24.536;2023-05-15T05:39:34;11.10;;;5.30;;
39792;SDS011;26080;42.264;24.536;2023-05-15T05:42:00;6.43;;;3.60;;
39792;SDS011;26080;42.264;24.536;2023-05-15T05:44:25;4.32;;;2.70;;
39792;SDS011;26080;42.264;24.536;2023-05-15T05:46:51;4.97;;;2.60;;
39792;SDS011;26080;42.264;24.536;2023-05-15T05:49:16;4.55;;;3.78;;
39792;SDS011;26080;42.264;24.536;2023-05-15T05:51:43;3.25;;;1.90;;
39792;SDS011;26080;42.264;24.536;2023-05-15T05:54:10;2.63;;;1.95;;
39792;SDS011;26080;42.264;24.536;2023-05-15T05:56:35;3.75;;;2.53;;
39792;SDS011;26080;42.264;24.536;2023-05-15T05:59:01;8.23;;;2.63;;
39792;SDS011;26080;42.264;24.536;2023-05-15T06:01:26;8.48;;;3.85;;
39792;SDS011;26080;42.264;24.536;2023-05-15T06:03:52;5.35;;;3.28;;
39792;SDS011;26080;42.264;24.536;2023-05-15T06:06:19;4.45;;;2.53;;
39792;SDS011;26080;42.264;24.536;2023-05-15T06:08:45;5.85;;;2.85;;
39792;SDS011;26080;42.264;24.536;2023-05-15T06:11:10;4.50;;;2.88;;
39792;SDS011;26080;42.264;24.536;2023-05-15T06:13:36;15.73;;;3.45;;
39792;SDS011;26080;42.264;24.536;2023-05-15T06:16:01;19.15;;;5.95;;
39792;SDS011;26080;42.264;24.536;2023-05-15T06:18:27;14.10;;;5.60;;
39792;SDS011;26080;42.264;24.536;2023-05-15T06:20:52;5.70;;;2.80;;
39792;SDS011;26080;42.264;24.536;2023-05-15T06:23:17;5.53;;;2.60;;
39792;SDS011;26080;42.264;24.536;2023-05-15T06:25:43;7.22;;;2.28;;
39792;SDS011;26080;42.264;24.536;2023-05-15T06:28:08;2.45;;;1.80;;
39792;SDS011;26080;42.264;24.536;2023-05-15T06:30:34;6.07;;;2.78;;
39792;SDS011;26080;42.264;24.536;2023-05-15T06:32:59;10.98;;;3.35;;
39792;SDS011;26080;42.264;24.536;2023-05-15T06:35:25;4.45;;;2.85;;
39792;SDS011;26080;42.264;24.536;2023-05-15T06:37:50;7.78;;;3.50;;
39792;SDS011;26080;42.264;24.536;2023-05-15T06:40:17;6.18;;;2.75;;
39792;SDS011;26080;42.264;24.536;2023-05-15T06:42:43;6.85;;;3.55;;
39792;SDS011;26080;42.264;24.536;2023-05-15T06:45:08;4.38;;;2.90;;
39792;SDS011;26080;42.264;24.536;2023-05-15T06:47:40;5.25;;;2.85;;
39792;SDS011;26080;42.264;24.536;2023-05-15T06:50:11;2.55;;;2.13;;
39792;SDS011;26080;42.264;24.536;2023-05-15T06:52:37;3.83;;;2.55;;
39792;SDS011;26080;42.264;24.536;2023-05-15T06:55:05;7.65;;;3.28;;
39792;SDS011;26080;42.264;24.536;2023-05-15T06:57:31;3.08;;;1.92;;
39792;SDS011;26080;42.264;24.536;2023-05-15T06:59:57;4.32;;;3.17;;
39792;SDS011;26080;42.264;24.536;2023-05-15T07:02:22;5.72;;;2.97;;
39792;SDS011;26080;42.264;24.536;2023-05-15T07:04:48;5.63;;;3.88;;
39792;SDS011;26080;42.264;24.536;2023-05-15T07:07:13;3.97;;;2.08;;
39792;SDS011;26080;42.264;24.536;2023-05-15T07:09:39;3.80;;;2.35;;
39792;SDS011;26080;42.264;24.536;2023-05-15T07:12:05;3.33;;;2.08;;
39792;SDS011;26080;42.264;24.536;2023-05-15T07:14:31;8.35;;;3.13;;
39792;SDS011;26080;42.264;24.536;2023-05-15T07:16:56;8.45;;;4.47;;
39792;SDS011;26080;42.264;24.536;2023-05-15T07:19:21;5.28;;;3.00;;
39792;SDS011;26080;42.264;24.536;2023-05-15T07:21:47;5.13;;;2.97;;
39792;SDS011;26080;42.264;24.536;2023-05-15T07:24:12;9.10;;;3.13;;
39792;SDS011;26080;42.264;24.536;2023-05-15T07:26:38;4.95;;;3.38;;
39792;SDS011;26080;42.264;24.536;2023-05-15T07:29:03;4.45;;;1.92;;
39792;SDS011;26080;42.264;24.536;2023-05-15T07:31:28;3.50;;;2.55;;
39792;SDS011;26080;42.264;24.536;2023-05-15T07:33:55;9.30;;;3.50;;
39792;SDS011;26080;42.264;24.536;2023-05-15T07:36:20;5.32;;;2.83;;
39792;SDS011;26080;42.264;24.536;2023-05-15T07:38:46;3.58;;;2.13;;
39792;SDS011;26080;42.264;24.536;2023-05-15T07:41:11;3.83;;;2.65;;
39792;SDS011;26080;42.264;24.536;2023-05-15T07:43:37;7.20;;;2.92;;
39792;SDS011;26080;42.264;24.536;2023-05-15T07:46:02;4.57;;;2.38;;
39792;SDS011;26080;42.264;24.536;2023-05-15T07:48:27;4.35;;;2.70;;
39792;SDS011;26080;42.264;24.536;2023-05-15T07:50:53;6.25;;;2.40;;
39792;SDS011;26080;42.264;24.536;2023-05-15T07:53:19;4.40;;;2.83;;
39792;SDS011;26080;42.264;24.536;2023-05-15T07:55:44;4.80;;;1.70;;
39792;SDS011;26080;42.264;24.536;2023-05-15T07:58:10;2.45;;;1.88;;
39792;SDS011;26080;42.264;24.536;2023-05-15T08:00:35;2.60;;;1.65;;
39792;SDS011;26080;42.264;24.536;2023-05-15T08:03:02;5.40;;;2.65;;
39792;SDS011;26080;42.264;24.536;2023-05-15T08:05:27;5.50;;;2.47;;
39792;SDS011;26080;42.264;24.536;2023-05-15T08:07:53;3.25;;;2.03;;
39792;SDS011;26080;42.264;24.536;2023-05-15T08:10:19;2.17;;;1.60;;
39792;SDS011;26080;42.264;24.536;2023-05-15T08:12:45;5.72;;;2.53;;
39792;SDS011;26080;42.264;24.536;2023-05-15T08:15:11;7.57;;;2.58;;
39792;SDS011;26080;42.264;24.536;2023-05-15T08:17:37;2.92;;;1.92;;
39792;SDS011;26080;42.264;24.536;2023-05-15T08:20:05;4.72;;;2.92;;
39792;SDS011;26080;42.264;24.536;2023-05-15T08:22:32;2.33;;;2.13;;
39792;SDS011;26080;42.264;24.536;2023-05-15T08:24:58;4.45;;;2.28;;
39792;SDS011;26080;42.264;24.536;2023-05-15T08:27:24;2.38;;;2.15;;
39792;SDS011;26080;42.264;24.536;2023-05-15T08:29:50;3.35;;;2.08;;
39792;SDS011;26080;42.264;24.536;2023-05-15T08:32:16;5.03;;;2.47;;
39792;SDS011;26080;42.264;24.536;2023-05-15T08:34:43;5.72;;;2.85;;
39792;SDS011;26080;42.264;24.536;2023-05-15T08:37:08;3.50;;;1.85;;
39792;SDS011;26080;42.264;24.536;2023-05-15T08:39:34;3.70;;;2.55;;
39792;SDS011;26080;42.264;24.536;2023-05-15T08:44:57;4.40;;;2.30;;
39792;SDS011;26080;42.264;24.536;2023-05-15T08:47:24;4.05;;;2.17;;
39792;SDS011;26080;42.264;24.536;2023-05-15T08:50:01;2.67;;;2.00;;
39792;SDS011;26080;42.264;24.536;2023-05-15T08:52:32;4.90;;;2.38;;
39792;SDS011;26080;42.264;24.536;2023-05-15T08:55:04;8.88;;;3.35;;
39792;SDS011;26080;42.264;24.536;2023-05-15T08:57:30;6.25;;;3.72;;
39792;SDS011;26080;42.264;24.536;2023-05-15T08:59:57;7.55;;;3.20;;
39792;SDS011;26080;42.264;24.536;2023-05-15T09:02:24;3.25;;;2.15;;
39792;SDS011;26080;42.264;24.536;2023-05-15T09:04:53;3.53;;;2.60;;
39792;SDS011;26080;42.264;24.536;2023-05-15T09:07:19;8.48;;;3.70;;
39792;SDS011;26080;42.264;24.536;2023-05-15T09:09:47;3.25;;;2.13;;
39792;SDS011;26080;42.264;24.536;2023-05-15T09:12:14;6.10;;;3.40;;
39792;SDS011;26080;42.264;24.536;2023-05-15T09:14:40;3.17;;;2.85;;
39792;SDS011;26080;42.264;24.536;2023-05-15T09:17:08;4.32;;;3.20;;
39792;SDS011;26080;42.264;24.536;2023-05-15T09:19:35;3.92;;;2.47;;
39792;SDS011;26080;42.264;24.536;2023-05-15T09:22:13;3.45;;;2.08;;
39792;SDS011;26080;42.264;24.536;2023-05-15T09:24:48;4.82;;;2.83;;
39792;SDS011;26080;42.264;24.536;2023-05-15T09:27:17;5.68;;;2.97;;
39792;SDS011;26080;42.264;24.536;2023-05-15T09:29:43;4.03;;;2.53;;
39792;SDS011;26080;42.264;24.536;2023-05-15T09:32:10;5.35;;;3.15;;
39792;SDS011;26080;42.264;24.536;2023-05-15T09:34:39;3.97;;;2.22;;
39792;SDS011;26080;42.264;24.536;2023-05-15T09:37:06;3.47;;;2.42;;
39792;SDS011;26080;42.264;24.536;2023-05-15T09:39:34;3.03;;;2.22;;
39792;SDS011;26080;42.264;24.536;2023-05-15T09:42:05;2.92;;;2.08;;
39792;SDS011;26080;42.264;24.536;2023-05-15T09:44:39;4.03;;;2.65;;
39792;SDS011;26080;42.264;24.536;2023-05-15T09:47:05;9.65;;;2.95;;
39792;SDS011;26080;42.264;24.536;2023-05-15T09:49:31;7.28;;;2.55;;
39792;SDS011;26080;42.264;24.536;2023-05-15T09:51:58;4.13;;;3.10;;
39792;SDS011;26080;42.264;24.536;2023-05-15T09:54:26;5.30;;;2.70;;
39792;SDS011;26080;42.264;24.536;2023-05-15T09:56:54;5.43;;;3.55;;
39792;SDS011;26080;42.264;24.536;2023-05-15T09:59:20;5.43;;;2.88;;
39792;SDS011;26080;42.264;24.536;2023-05-15T10:01:46;4.68;;;3.08;;
39792;SDS011;26080;42.264;24.536;2023-05-15T10:04:13;4.78;;;3.38;;
39792;SDS011;26080;42.264;24.536;2023-05-15T10:06:44;6.20;;;3.03;;
39792;SDS011;26080;42.264;24.536;2023-05-15T10:09:10;4.78;;;2.80;;
39792;SDS011;26080;42.264;24.536;2023-05-15T10:11:38;4.50;;;2.25;;
39792;SDS011;26080;42.264;24.536;2023-05-15T10:14:16;10.50;;;2.97;;
39792;SDS011;26080;42.264;24.536;2023-05-15T10:16:43;4.13;;;2.80;;
39792;SDS011;26080;42.264;24.536;2023-05-15T10:19:11;4.07;;;2.35;;
39792;SDS011;26080;42.264;24.536;2023-05-15T10:21:40;5.35;;;3.15;;
39792;SDS011;26080;42.264;24.536;2023-05-15T10:24:06;5.68;;;3.10;;
39792;SDS011;26080;42.264;24.536;2023-05-15T10:26:36;5.50;;;3.00;;
39792;SDS011;26080;42.264;24.536;2023-05-15T10:29:21;3.90;;;2.63;;
39792;SDS011;26080;42.264;24.536;2023-05-15T10:31:49;7.57;;;3.83;;
39792;SDS011;26080;42.264;24.536;2023-05-15T10:34:16;4.97;;;3.40;;
39792;SDS011;26080;42.264;24.536;2023-05-15T10:36:42;4.28;;;3.03;;
39792;SDS011;26080;42.264;24.536;2023-05-15T10:39:09;7.00;;;3.25;;
39792;SDS011;26080;42.264;24.536;2023-05-15T10:41:36;7.53;;;3.55;;
39792;SDS011;26080;42.264;24.536;2023-05-15T10:44:03;4.07;;;3.28;;
39792;SDS011;26080;42.264;24.536;2023-05-15T10:46:30;3.58;;;2.75;;
39792;SDS011;26080;42.264;24.536;2023-05-15T10:48:57;5.68;;;3.50;;
39792;SDS011;26080;42.264;24.536;2023-05-15T10:51:25;8.80;;;3.75;;
39792;SDS011;26080;42.264;24.536;2023-05-15T10:53:56;4.95;;;4.15;;
39792;SDS011;26080;42.264;24.536;2023-05-15T10:56:30;15.80;;;4.75;;
39792;SDS011;26080;42.264;24.536;2023-05-15T10:59:07;5.32;;;3.28;;
39792;SDS011;26080;42.264;24.536;2023-05-15T11:01:35;6.20;;;3.00;;
39792;SDS011;26080;42.264;24.536;2023-05-15T11:06:33;6.93;;;3.72;;
39792;SDS011;26080;42.264;24.536;2023-05-15T11:11:56;10.27;;;4.15;;
39792;SDS011;26080;42.264;24.536;2023-05-15T11:17:15;5.68;;;3.55;;
39792;SDS011;26080;42.264;24.536;2023-05-15T11:27:23;3.55;;;2.95;;
39792;SDS011;26080;42.264;24.536;2023-05-15T11:30:03;5.72;;;3.10;;
39792;SDS011;26080;42.264;24.536;2023-05-15T11:35:22;7.30;;;5.03;;
39792;SDS011;26080;42.264;24.536;2023-05-15T11:38:00;5.90;;;4.57;;
39792;SDS011;26080;42.264;24.536;2023-05-15T11:40:28;9.32;;;5.00;;
39792;SDS011;26080;42.264;24.536;2023-05-15T11:45:53;7.35;;;4.60;;
39792;SDS011;26080;42.264;24.536;2023-05-15T11:48:32;6.55;;;5.00;;
39792;SDS011;26080;42.264;24.536;2023-05-15T11:51:01;7.43;;;4.03;;
39792;SDS011;26080;42.264;24.536;2023-05-15T11:53:28;5.00;;;3.58;;
39792;SDS011;26080;42.264;24.536;2023-05-15T11:55:55;9.63;;;4.30;;
39792;SDS011;26080;42.264;24.536;2023-05-15T11:58:21;6.30;;;4.32;;
39792;SDS011;26080;42.264;24.536;2023-05-15T12:00:48;6.95;;;4.03;;
39792;SDS011;26080;42.264;24.536;2023-05-15T12:03:16;10.70;;;4.85;;
39792;SDS011;26080;42.264;24.536;2023-05-15T12:05:42;5.85;;;3.80;;
39792;SDS011;26080;42.264;24.536;2023-05-15T12:08:08;7.28;;;4.05;;
39792;SDS011;26080;42.264;24.536;2023-05-15T12:10:38;5.32;;;4.38;;
39792;SDS011;26080;42.264;24.536;2023-05-15T12:13:08;6.15;;;4.15;;
39792;SDS011;26080;42.264;24.536;2023-05-15T12:15:35;6.80;;;3.75;;
39792;SDS011;26080;42.264;24.536;2023-05-15T12:18:03;8.65;;;4.68;;
39792;SDS011;26080;42.264;24.536;2023-05-15T12:20:31;6.55;;;3.85;;
39792;SDS011;26080;42.264;24.536;2023-05-15T12:22:57;5.90;;;3.47;;
39792;SDS011;26080;42.264;24.536;2023-05-15T12:25:23;4.47;;;3.25;;
39792;SDS011;26080;42.264;24.536;2023-05-15T12:27:49;9.65;;;3.42;;
39792;SDS011;26080;42.264;24.536;2023-05-15T12:30:14;4.72;;;3.45;;
39792;SDS011;26080;42.264;24.536;2023-05-15T12:32:40;6.53;;;3.35;;
39792;SDS011;26080;42.264;24.536;2023-05-15T12:35:06;4.82;;;3.40;;
39792;SDS011;26080;42.264;24.536;2023-05-15T12:37:34;6.65;;;4.40;;
39792;SDS011;26080;42.264;24.536;2023-05-15T12:40:03;8.18;;;5.03;;
39792;SDS011;26080;42.264;24.536;2023-05-15T12:42:42;7.97;;;3.63;;
39792;SDS011;26080;42.264;24.536;2023-05-15T12:47:39;8.45;;;5.38;;
39792;SDS011;26080;42.264;24.536;2023-05-15T12:50:20;9.27;;;4.90;;
39792;SDS011;26080;42.264;24.536;2023-05-15T12:52:53;6.88;;;3.67;;
39792;SDS011;26080;42.264;24.536;2023-05-15T12:57:49;10.70;;;4.50;;
39792;SDS011;26080;42.264;24.536;2023-05-15T13:00:16;6.95;;;3.35;;
39792;SDS011;26080;42.264;24.536;2023-05-15T13:02:42;7.35;;;4.70;;
39792;SDS011;26080;42.264;24.536;2023-05-15T13:05:09;7.93;;;4.32;;
39792;SDS011;26080;42.264;24.536;2023-05-15T13:07:35;6.03;;;3.97;;
39792;SDS011;26080;42.264;24.536;2023-05-15T13:10:01;7.57;;;4.95;;
39792;SDS011;26080;42.264;24.536;2023-05-15T13:12:37;5.82;;;3.70;;
39792;SDS011;26080;42.264;24.536;2023-05-15T13:15:04;15.10;;;4.85;;
39792;SDS011;26080;42.264;24.536;2023-05-15T13:17:31;6.60;;;4.70;;
39792;SDS011;26080;42.264;24.536;2023-05-15T13:19:58;7.60;;;4.45;;
39792;SDS011;26080;42.264;24.536;2023-05-15T13:22:24;11.18;;;6.18;;
39792;SDS011;26080;42.264;24.536;2023-05-15T13:24:50;9.13;;;4.60;;
39792;SDS011;26080;42.264;24.536;2023-05-15T13:27:16;9.10;;;4.90;;
39792;SDS011;26080;42.264;24.536;2023-05-15T13:29:42;11.40;;;5.05;;
39792;SDS011;26080;42.264;24.536;2023-05-15T13:32:07;7.53;;;4.18;;
39792;SDS011;26080;42.264;24.536;2023-05-15T13:34:33;10.45;;;4.20;;
39792;SDS011;26080;42.264;24.536;2023-05-15T13:36:59;7.90;;;4.60;;
39792;SDS011;26080;42.264;24.536;2023-05-15T13:39:24;7.05;;;4.47;;
39792;SDS011;26080;42.264;24.536;2023-05-15T13:41:49;8.02;;;3.75;;
39792;SDS011;26080;42.264;24.536;2023-05-15T13:44:15;5.80;;;3.60;;
39792;SDS011;26080;42.264;24.536;2023-05-15T13:46:40;6.85;;;4.32;;
39792;SDS011;26080;42.264;24.536;2023-05-15T13:49:05;7.22;;;4.53;;
39792;SDS011;26080;42.264;24.536;2023-05-15T13:51:31;14.63;;;5.43;;
39792;SDS011;26080;42.264;24.536;2023-05-15T13:53:56;7.88;;;4.05;;
39792;SDS011;26080;42.264;24.536;2023-05-15T13:56:22;13.93;;;5.05;;
39792;SDS011;26080;42.264;24.536;2023-05-15T13:58:47;5.60;;;4.72;;
39792;SDS011;26080;42.264;24.536;2023-05-15T14:01:12;7.80;;;4.47;;
39792;SDS011;26080;42.264;24.536;2023-05-15T14:03:38;6.20;;;4.07;;
39792;SDS011;26080;42.264;24.536;2023-05-15T14:06:03;8.75;;;3.45;;
39792;SDS011;26080;42.264;24.536;2023-05-15T14:08:29;7.82;;;4.18;;
39792;SDS011;26080;42.264;24.536;2023-05-15T14:10:54;8.77;;;4.47;;
39792;SDS011;26080;42.264;24.536;2023-05-15T14:13:20;11.90;;;4.75;;
39792;SDS011;26080;42.264;24.536;2023-05-15T14:15:45;12.20;;;4.30;;
39792;SDS011;26080;42.264;24.536;2023-05-15T14:18:11;10.23;;;5.60;;
39792;SDS011;26080;42.264;24.536;2023-05-15T14:20:36;5.90;;;4.78;;
39792;SDS011;26080;42.264;24.536;2023-05-15T14:23:02;5.70;;;3.97;;
39792;SDS011;26080;42.264;24.536;2023-05-15T14:25:27;11.30;;;5.03;;
39792;SDS011;26080;42.264;24.536;2023-05-15T14:27:52;8.77;;;5.43;;
39792;SDS011;26080;42.264;24.536;2023-05-15T14:30:18;6.43;;;4.40;;
39792;SDS011;26080;42.264;24.536;2023-05-15T14:32:45;7.47;;;4.15;;
39792;SDS011;26080;42.264;24.536;2023-05-15T14:35:11;6.82;;;4.10;;
39792;SDS011;26080;42.264;24.536;2023-05-15T14:37:36;6.97;;;4.18;;
39792;SDS011;26080;42.264;24.536;2023-05-15T14:40:05;6.30;;;4.75;;
39792;SDS011;26080;42.264;24.536;2023-05-15T14:42:32;10.98;;;5.55;;
39792;SDS011;26080;42.264;24.536;2023-05-15T14:44:57;7.78;;;4.05;;
39792;SDS011;26080;42.264;24.536;2023-05-15T14:47:22;8.55;;;5.50;;
39792;SDS011;26080;42.264;24.536;2023-05-15T14:49:49;7.15;;;4.22;;
39792;SDS011;26080;42.264;24.536;2023-05-15T14:52:14;7.78;;;3.75;;
39792;SDS011;26080;42.264;24.536;2023-05-15T14:54:40;10.32;;;4.75;;
39792;SDS011;26080;42.264;24.536;2023-05-15T14:57:05;8.82;;;4.15;;
39792;SDS011;26080;42.264;24.536;2023-05-15T14:59:31;6.90;;;4.28;;
39792;SDS011;26080;42.264;24.536;2023-05-15T15:01:57;9.13;;;6.10;;
39792;SDS011;26080;42.264;24.536;2023-05-15T15:04:22;7.90;;;4.60;;
39792;SDS011;26080;42.264;24.536;2023-05-15T15:06:48;11.63;;;5.10;;
39792;SDS011;26080;42.264;24.536;2023-05-15T15:09:14;10.90;;;6.22;;
39792;SDS011;26080;42.264;24.536;2023-05-15T15:11:39;7.97;;;5.32;;
39792;SDS011;26080;42.264;24.536;2023-05-15T15:14:05;14.05;;;5.78;;
39792;SDS011;26080;42.264;24.536;2023-05-15T15:16:30;7.55;;;4.55;;
39792;SDS011;26080;42.264;24.536;2023-05-15T15:18:56;13.45;;;5.80;;